createdAt,value
2023-02-11T00:01:43.033Z,89.20
2023-02-11T00:04:09.692Z,89.20
2023-02-11T00:06:36.065Z,89.20
2023-02-11T00:09:02.459Z,89.20
2023-02-11T00:11:28.886Z,89.20
2023-02-11T00:13:55.337Z,89.20
2023-02-11T00:16:21.790Z,89.20
2023-02-11T00:18:48.271Z,89.20
2023-02-11T00:21:14.720Z,89.20
2023-02-11T00:23:41.177Z,89.20
2023-02-11T00:26:07.579Z,89.20
2023-02-11T00:28:34.024Z,89.20
2023-02-11T00:31:00.605Z,89.10
2023-02-11T00:33:27.046Z,89.10
2023-02-11T00:35:53.476Z,89.10
2023-02-11T00:38:19.874Z,89.00
2023-02-11T00:40:46.339Z,89.00
2023-02-11T00:43:12.816Z,89.00
2023-02-11T00:45:39.250Z,88.90
2023-02-11T00:48:05.685Z,88.90
2023-02-11T00:50:32.168Z,88.90
2023-02-11T00:52:58.702Z,88.90
2023-02-11T00:55:25.105Z,88.90
2023-02-11T00:57:51.486Z,88.80
2023-02-11T01:00:17.898Z,88.80
2023-02-11T01:02:44.387Z,88.70
2023-02-11T01:05:10.922Z,88.70
2023-02-11T01:07:37.410Z,88.60
2023-02-11T01:10:03.859Z,88.60
2023-02-11T01:12:30.378Z,88.60
2023-02-11T01:14:56.809Z,88.60
2023-02-11T01:17:23.250Z,88.60
2023-02-11T01:19:49.661Z,88.60
2023-02-11T01:22:16.103Z,88.60
2023-02-11T01:24:42.554Z,88.60
2023-02-11T01:27:08.967Z,88.60
2023-02-11T01:29:35.403Z,88.50
2023-02-11T01:32:01.932Z,88.50
2023-02-11T01:34:28.370Z,88.50
2023-02-11T01:36:54.816Z,88.50
2023-02-11T01:39:21.213Z,88.40
2023-02-11T01:41:47.672Z,88.30
2023-02-11T01:44:14.125Z,88.40
2023-02-11T01:46:40.619Z,88.30
2023-02-11T01:49:07.127Z,88.60
2023-02-11T01:51:33.629Z,88.40
2023-02-11T01:54:00.007Z,88.40
2023-02-11T01:56:26.419Z,88.40
2023-02-11T01:58:52.812Z,88.40
2023-02-11T02:01:19.316Z,88.40
2023-02-11T02:03:45.828Z,88.50
2023-02-11T02:06:12.322Z,88.50
2023-02-11T02:08:38.840Z,88.40
2023-02-11T02:11:05.262Z,88.40
2023-02-11T02:13:31.703Z,89.10
2023-02-11T02:15:58.177Z,88.50
2023-02-11T02:18:24.609Z,88.50
2023-02-11T02:20:51.004Z,88.60
2023-02-11T02:23:17.390Z,88.60
2023-02-11T02:25:43.816Z,88.60
2023-02-11T02:28:10.412Z,88.60
2023-02-11T02:30:36.896Z,88.70
2023-02-11T02:33:16.717Z,88.70
2023-02-11T02:35:48.455Z,88.70
2023-02-11T02:38:15.235Z,88.80
2023-02-11T02:40:41.714Z,88.80
2023-02-11T02:43:08.113Z,88.80
2023-02-11T02:45:34.549Z,88.80
2023-02-11T02:48:01.014Z,88.80
2023-02-11T02:50:27.457Z,88.80
2023-02-11T02:52:53.907Z,88.90
2023-02-11T02:55:20.282Z,88.90
2023-02-11T02:57:46.735Z,88.90
2023-02-11T03:00:13.243Z,88.80
2023-02-11T03:02:39.842Z,88.80
2023-02-11T03:05:06.288Z,88.80
2023-02-11T03:07:32.738Z,88.90
2023-02-11T03:09:59.182Z,88.90
2023-02-11T03:12:25.581Z,88.90
2023-02-11T03:14:52.039Z,88.90
2023-02-11T03:17:18.603Z,89.00
2023-02-11T03:19:45.218Z,89.00
2023-02-11T03:22:11.703Z,89.00
2023-02-11T03:24:38.140Z,88.90
2023-02-11T03:27:04.539Z,89.00
2023-02-11T03:29:31.024Z,89.00
2023-02-11T03:31:57.487Z,89.20
2023-02-11T03:34:23.969Z,89.20
2023-02-11T03:36:50.418Z,89.20
2023-02-11T03:39:16.794Z,89.20
2023-02-11T03:41:43.241Z,89.20
2023-02-11T03:44:09.847Z,89.20
2023-02-11T03:46:36.328Z,89.20
2023-02-11T03:49:02.871Z,89.20
2023-02-11T03:51:29.267Z,89.20
2023-02-11T03:53:55.758Z,89.20
2023-02-11T03:56:22.209Z,89.20
2023-02-11T03:58:48.874Z,89.20
2023-02-11T04:01:15.404Z,89.30
2023-02-11T04:03:41.849Z,89.30
2023-02-11T04:06:08.485Z,89.20
2023-02-11T04:08:34.955Z,89.20
2023-02-11T04:11:01.401Z,89.30
2023-02-11T04:13:27.862Z,89.30
2023-02-11T04:15:54.590Z,89.30
2023-02-11T04:18:21.194Z,89.20
2023-02-11T04:20:47.654Z,89.30
2023-02-11T04:23:14.093Z,89.30
2023-02-11T04:25:40.518Z,89.30
2023-02-11T04:28:06.992Z,89.30
2023-02-11T04:30:33.425Z,89.40
2023-02-11T04:32:59.828Z,89.40
2023-02-11T04:35:26.233Z,89.40
2023-02-11T04:37:52.635Z,89.40
2023-02-11T04:40:19.097Z,89.40
2023-02-11T04:42:45.507Z,90.00
2023-02-11T04:45:11.952Z,89.40
2023-02-11T04:47:38.494Z,89.30
2023-02-11T04:50:05.028Z,89.20
2023-02-11T04:52:31.500Z,89.30
2023-02-11T04:54:57.900Z,89.30
2023-02-11T04:57:24.342Z,89.30
2023-02-11T04:59:50.777Z,89.30
2023-02-11T05:02:17.201Z,89.40
2023-02-11T05:04:43.598Z,89.40
2023-02-11T05:07:09.987Z,89.40
2023-02-11T05:09:36.587Z,89.40
2023-02-11T05:12:02.977Z,89.40
2023-02-11T05:14:29.362Z,89.40
2023-02-11T05:16:55.821Z,89.40
2023-02-11T05:19:22.279Z,89.40
2023-02-11T05:22:01.744Z,89.50
2023-02-11T05:24:29.238Z,89.40
2023-02-11T05:26:55.671Z,89.50
2023-02-11T05:29:22.119Z,89.50
2023-02-11T05:31:48.900Z,89.60
2023-02-11T05:34:15.355Z,89.60
2023-02-11T05:36:41.755Z,89.60
2023-02-11T05:39:08.162Z,89.60
2023-02-11T05:41:34.571Z,89.70
2023-02-11T05:44:00.995Z,89.70
2023-02-11T05:46:27.426Z,89.70
2023-02-11T05:48:53.824Z,90.10
2023-02-11T05:51:20.279Z,89.70
2023-02-11T05:53:46.691Z,89.80
2023-02-11T05:56:13.088Z,89.80
2023-02-11T05:58:39.589Z,89.80
2023-02-11T06:01:06.002Z,89.80
2023-02-11T06:03:32.465Z,89.90
2023-02-11T06:05:58.922Z,89.90
2023-02-11T06:08:25.360Z,89.90
2023-02-11T06:10:51.792Z,89.90
2023-02-11T06:13:18.236Z,89.90
2023-02-11T06:15:44.731Z,90.00
2023-02-11T06:18:11.176Z,90.00
2023-02-11T06:20:37.638Z,90.00
2023-02-11T06:23:04.111Z,90.00
2023-02-11T06:25:30.513Z,90.00
2023-02-11T06:27:56.938Z,90.10
2023-02-11T06:30:23.360Z,90.10
2023-02-11T06:32:50.007Z,90.10
2023-02-11T06:35:16.493Z,90.10
2023-02-11T06:37:42.970Z,90.10
2023-02-11T06:40:09.409Z,90.20
2023-02-11T06:42:35.797Z,90.20
2023-02-11T06:45:02.261Z,90.30
2023-02-11T06:47:28.689Z,90.30
2023-02-11T06:49:55.064Z,90.30
2023-02-11T06:52:21.481Z,90.20
2023-02-11T06:54:47.944Z,90.20
2023-02-11T06:57:14.359Z,90.20
2023-02-11T06:59:40.752Z,90.20
2023-02-11T07:02:07.229Z,90.20
2023-02-11T07:04:33.654Z,90.20
2023-02-11T07:07:00.101Z,90.20
2023-02-11T07:09:26.496Z,90.20
2023-02-11T07:11:52.882Z,90.20
2023-02-11T07:14:19.640Z,90.20
2023-02-11T07:16:46.083Z,90.20
2023-02-11T07:19:12.484Z,90.20
2023-02-11T07:21:38.993Z,90.20
2023-02-11T07:24:05.491Z,90.20
2023-02-11T07:26:31.933Z,90.30
2023-02-11T07:28:58.310Z,90.30
2023-02-11T07:31:24.850Z,90.30
2023-02-11T07:33:51.380Z,90.30
2023-02-11T07:36:17.762Z,90.30
2023-02-11T07:38:44.209Z,90.30
2023-02-11T07:41:10.602Z,90.30
2023-02-11T07:43:37.060Z,90.30
2023-02-11T07:46:03.460Z,90.60
2023-02-11T07:48:29.895Z,90.30
2023-02-11T07:50:56.312Z,90.30
2023-02-11T07:53:22.722Z,90.30
2023-02-11T07:55:49.616Z,90.30
2023-02-11T07:58:16.328Z,90.30
2023-02-11T08:00:42.787Z,90.30
2023-02-11T08:03:09.193Z,90.30
2023-02-11T08:05:35.672Z,90.30
2023-02-11T08:08:02.172Z,90.30
2023-02-11T08:10:28.597Z,90.30
2023-02-11T08:12:54.973Z,90.30
2023-02-11T08:15:21.371Z,90.30
2023-02-11T08:17:47.836Z,90.30
2023-02-11T08:20:14.329Z,90.30
2023-02-11T08:22:40.778Z,90.30
2023-02-11T08:25:07.224Z,90.30
2023-02-11T08:27:33.662Z,90.40
2023-02-11T08:30:00.202Z,90.40
2023-02-11T08:32:26.605Z,90.40
2023-02-11T08:34:53.044Z,90.30
2023-02-11T08:37:19.611Z,90.40
2023-02-11T08:39:46.047Z,90.40
2023-02-11T08:42:12.432Z,90.40
2023-02-11T08:44:39.022Z,90.40
2023-02-11T08:47:05.502Z,90.40
2023-02-11T08:49:31.922Z,90.40
2023-02-11T08:51:58.390Z,90.40
2023-02-11T08:54:24.848Z,90.40
2023-02-11T08:56:51.251Z,90.40
2023-02-11T08:59:17.637Z,90.40
2023-02-11T09:01:44.352Z,90.30
2023-02-11T09:04:11.003Z,90.30
2023-02-11T09:06:37.395Z,90.30
2023-02-11T09:09:03.833Z,90.30
2023-02-11T09:11:30.258Z,90.30
2023-02-11T09:13:56.668Z,90.30
2023-02-11T09:16:23.113Z,90.30
2023-02-11T09:18:49.855Z,90.30
2023-02-11T09:21:16.295Z,90.30
2023-02-11T09:23:42.706Z,90.30
2023-02-11T09:26:09.566Z,90.30
2023-02-11T09:28:36.222Z,90.20
2023-02-11T09:31:02.744Z,90.20
2023-02-11T09:33:29.266Z,90.30
2023-02-11T09:35:55.695Z,90.30
2023-02-11T09:38:22.145Z,90.30
2023-02-11T09:40:48.917Z,90.30
2023-02-11T09:43:15.495Z,90.30
2023-02-11T09:45:41.868Z,90.20
2023-02-11T09:48:08.286Z,90.30
2023-02-11T09:50:34.722Z,90.30
2023-02-11T09:53:01.147Z,90.30
2023-02-11T09:55:27.585Z,90.30
2023-02-11T09:57:53.984Z,90.30
2023-02-11T10:00:20.358Z,90.30
2023-02-11T10:02:46.780Z,90.30
2023-02-11T10:05:13.245Z,90.20
2023-02-11T10:07:39.902Z,90.20
2023-02-11T10:10:06.303Z,90.20
2023-02-11T10:12:32.701Z,90.10
2023-02-11T10:14:59.084Z,90.10
2023-02-11T10:17:25.467Z,90.10
2023-02-11T10:19:51.843Z,90.00
2023-02-11T10:22:18.253Z,90.00
2023-02-11T10:24:44.809Z,90.00
2023-02-11T10:27:11.380Z,90.00
2023-02-11T10:29:37.835Z,90.00
2023-02-11T10:32:04.289Z,89.90
2023-02-11T10:34:30.773Z,89.90
2023-02-11T10:36:57.238Z,89.80
2023-02-11T10:39:23.779Z,89.70
2023-02-11T10:41:50.202Z,89.50
2023-02-11T10:44:16.629Z,89.40
2023-02-11T10:46:43.126Z,89.40
2023-02-11T10:49:09.756Z,89.30
2023-02-11T10:51:36.183Z,89.30
2023-02-11T10:54:02.642Z,89.20
2023-02-11T10:56:29.040Z,89.20
2023-02-11T10:58:55.450Z,89.00
2023-02-11T11:01:24.695Z,89.00
2023-02-11T11:03:51.453Z,88.80
2023-02-11T11:06:17.912Z,88.90
2023-02-11T11:08:44.314Z,88.80
2023-02-11T11:11:10.746Z,88.80
2023-02-11T11:13:37.129Z,88.90
2023-02-11T11:16:03.625Z,88.90
2023-02-11T11:18:30.050Z,88.80
2023-02-11T11:20:56.512Z,88.80
2023-02-11T11:23:22.961Z,88.80
2023-02-11T11:25:49.426Z,88.60
2023-02-11T11:28:15.863Z,88.50
2023-02-11T11:30:42.309Z,88.40
2023-02-11T11:33:08.959Z,88.20
2023-02-11T11:35:35.338Z,87.90
2023-02-11T11:38:02.187Z,87.60
2023-02-11T11:40:28.726Z,87.40
2023-02-11T11:42:55.190Z,87.10
2023-02-11T11:45:21.671Z,86.90
2023-02-11T11:47:48.077Z,86.60
2023-02-11T11:50:14.525Z,86.30
2023-02-11T11:52:40.961Z,86.00
2023-02-11T11:55:07.358Z,85.60
2023-02-11T11:57:33.744Z,85.70
2023-02-11T12:00:00.161Z,85.70
2023-02-11T12:02:26.652Z,85.50
2023-02-11T12:04:53.131Z,85.40
2023-02-11T12:07:19.758Z,85.50
2023-02-11T12:09:46.214Z,84.90
2023-02-11T12:12:12.651Z,84.90
2023-02-11T12:14:39.127Z,85.00
2023-02-11T12:17:05.501Z,84.80
2023-02-11T12:19:31.965Z,84.30
2023-02-11T12:21:58.360Z,84.20
2023-02-11T12:24:24.764Z,84.10
2023-02-11T12:26:51.216Z,84.10
2023-02-11T12:29:17.667Z,84.20
2023-02-11T12:31:44.170Z,83.80
2023-02-11T12:34:10.765Z,84.00
2023-02-11T12:36:37.259Z,83.80
2023-02-11T12:39:03.736Z,83.40
2023-02-11T12:41:30.236Z,83.20
2023-02-11T12:43:56.658Z,83.30
2023-02-11T12:46:23.100Z,83.00
2023-02-11T12:48:49.682Z,82.80
2023-02-11T12:51:16.168Z,83.10
2023-02-11T12:53:42.572Z,83.10
2023-02-11T12:56:09.131Z,83.10
2023-02-11T12:58:44.562Z,83.00
2023-02-11T13:01:12.084Z,82.90
2023-02-11T13:03:38.779Z,82.70
2023-02-11T13:06:05.177Z,82.60
2023-02-11T13:08:31.608Z,82.10
2023-02-11T13:10:58.052Z,82.10
2023-02-11T13:13:24.498Z,81.90
2023-02-11T13:15:50.938Z,81.60
2023-02-11T13:18:19.123Z,81.20
2023-02-11T13:20:45.661Z,81.20
2023-02-11T13:23:12.085Z,81.10
2023-02-11T13:25:38.552Z,81.30
2023-02-11T13:28:04.961Z,81.00
2023-02-11T13:30:31.420Z,80.70
2023-02-11T13:32:57.862Z,80.30
2023-02-11T13:35:24.261Z,80.50
2023-02-11T13:37:50.716Z,80.30
2023-02-11T13:40:17.171Z,80.60
2023-02-11T13:42:43.646Z,80.70
2023-02-11T13:45:10.413Z,80.70
2023-02-11T13:47:36.818Z,80.70
2023-02-11T13:50:03.234Z,80.40
2023-02-11T13:52:29.663Z,80.60
2023-02-11T13:54:56.119Z,80.80
2023-02-11T13:57:22.517Z,80.90
2023-02-11T13:59:49.009Z,80.70
2023-02-11T14:02:15.480Z,80.40
2023-02-11T14:04:41.928Z,80.20
2023-02-11T14:07:08.330Z,80.20
2023-02-11T14:09:34.738Z,80.40
2023-02-11T14:12:01.132Z,80.40
2023-02-11T14:14:27.519Z,80.30
2023-02-11T14:16:54.043Z,80.40
2023-02-11T14:19:20.453Z,80.60
2023-02-11T14:21:46.829Z,80.60
2023-02-11T14:24:13.264Z,80.50
2023-02-11T14:26:40.012Z,80.40
2023-02-11T14:29:06.453Z,80.40
2023-02-11T14:31:33.043Z,80.50
2023-02-11T14:33:59.495Z,80.50
2023-02-11T14:36:25.922Z,80.60
2023-02-11T14:38:52.382Z,81.00
2023-02-11T14:41:18.930Z,81.20
2023-02-11T14:43:45.459Z,81.40
2023-02-11T14:46:11.904Z,81.60
2023-02-11T14:48:38.330Z,81.60
2023-02-11T14:51:04.829Z,81.80
2023-02-11T14:53:31.278Z,81.90
2023-02-11T14:55:57.712Z,82.00
2023-02-11T14:58:24.113Z,82.20
2023-02-11T15:00:50.788Z,82.30
2023-02-11T15:03:17.472Z,82.40
2023-02-11T15:05:43.925Z,82.40
2023-02-11T15:08:10.463Z,82.30
2023-02-11T15:10:36.860Z,82.30
2023-02-11T15:13:03.329Z,82.10
2023-02-11T15:15:29.745Z,82.10
2023-02-11T15:17:56.189Z,82.20
2023-02-11T15:20:22.653Z,82.40
2023-02-11T15:22:49.050Z,82.50
2023-02-11T15:25:15.479Z,82.50
2023-02-11T15:27:41.959Z,82.40
2023-02-11T15:30:08.351Z,82.30
2023-02-11T15:32:34.799Z,82.40
2023-02-11T15:35:01.241Z,82.50
2023-02-11T15:37:27.650Z,82.50
2023-02-11T15:39:54.091Z,82.40
2023-02-11T15:42:20.540Z,82.60
2023-02-11T15:44:50.550Z,82.60
2023-02-11T15:47:20.880Z,82.60
2023-02-11T15:49:47.345Z,82.70
2023-02-11T15:52:13.735Z,82.70
2023-02-11T15:54:40.178Z,82.70
2023-02-11T15:57:06.628Z,82.60
2023-02-11T15:59:33.071Z,82.70
2023-02-11T16:01:59.508Z,82.60
2023-02-11T16:04:25.978Z,82.70
2023-02-11T16:06:52.389Z,82.80
2023-02-11T16:09:18.852Z,82.90
2023-02-11T16:11:45.213Z,83.00
2023-02-11T16:14:11.660Z,83.00
2023-02-11T16:16:38.069Z,83.10
2023-02-11T16:19:06.270Z,83.20
2023-02-11T16:21:33.004Z,83.20
2023-02-11T16:23:59.403Z,83.30
2023-02-11T16:26:25.842Z,83.40
2023-02-11T16:28:52.280Z,83.40
2023-02-11T16:31:18.939Z,83.50
2023-02-11T16:33:45.464Z,83.50
2023-02-11T16:36:11.914Z,83.60
2023-02-11T16:38:38.304Z,83.50
2023-02-11T16:41:04.777Z,83.50
2023-02-11T16:43:31.226Z,83.60
2023-02-11T16:45:57.665Z,83.80
2023-02-11T16:48:24.070Z,83.80
2023-02-11T16:50:53.301Z,83.90
2023-02-11T16:53:19.964Z,83.90
2023-02-11T16:55:46.342Z,84.00
2023-02-11T16:58:12.795Z,84.10
2023-02-11T17:00:39.303Z,84.20
2023-02-11T17:03:05.791Z,84.20
2023-02-11T17:05:37.856Z,84.30
2023-02-11T17:08:09.338Z,84.20
2023-02-11T17:10:35.765Z,84.10
2023-02-11T17:13:02.189Z,84.10
2023-02-11T17:15:28.658Z,84.00
2023-02-11T17:17:55.072Z,84.00
2023-02-11T17:20:21.528Z,84.00
2023-02-11T17:22:47.948Z,83.90
2023-02-11T17:25:14.397Z,84.00
2023-02-11T17:27:40.766Z,84.00
2023-02-11T17:30:07.199Z,84.10
2023-02-11T17:32:33.650Z,84.10
2023-02-11T17:35:00.044Z,84.20
2023-02-11T17:37:26.509Z,84.30
2023-02-11T17:39:52.880Z,84.30
2023-02-11T17:42:19.367Z,84.30
2023-02-11T17:44:45.818Z,84.30
2023-02-11T17:47:12.284Z,84.50
2023-02-11T17:49:38.735Z,84.60
2023-02-11T17:52:05.142Z,84.60
2023-02-11T17:54:31.553Z,84.60
2023-02-11T17:56:58.580Z,84.70
2023-02-11T17:59:25.122Z,84.70
2023-02-11T18:01:51.593Z,84.70
2023-02-11T18:04:18.072Z,84.70
2023-02-11T18:06:44.567Z,84.80
2023-02-11T18:09:11.026Z,84.90
2023-02-11T18:11:37.498Z,84.90
2023-02-11T18:14:03.896Z,85.00
2023-02-11T18:16:30.473Z,85.00
2023-02-11T18:18:57.069Z,85.10
2023-02-11T18:21:23.529Z,85.20
2023-02-11T18:23:49.974Z,85.10
2023-02-11T18:26:16.634Z,85.10
2023-02-11T18:28:45.704Z,85.10
2023-02-11T18:31:12.602Z,85.20
2023-02-11T18:33:39.123Z,85.20
2023-02-11T18:36:05.670Z,85.30
2023-02-11T18:38:32.068Z,85.40
2023-02-11T18:40:58.506Z,85.40
2023-02-11T18:43:24.958Z,85.40
2023-02-11T18:45:51.697Z,85.40
2023-02-11T18:48:18.344Z,85.50
2023-02-11T18:50:45.003Z,85.50
2023-02-11T18:53:11.409Z,85.50
2023-02-11T18:55:37.812Z,85.40
2023-02-11T18:58:04.204Z,85.40
2023-02-11T19:00:30.635Z,85.40
2023-02-11T19:02:57.065Z,85.40
2023-02-11T19:05:23.538Z,85.40
2023-02-11T19:07:49.965Z,85.40
2023-02-11T19:10:16.369Z,85.50
2023-02-11T19:12:42.802Z,85.40
2023-02-11T19:15:09.181Z,85.50
2023-02-11T19:17:35.578Z,85.40
2023-02-11T19:20:01.970Z,85.40
2023-02-11T19:22:28.354Z,85.40
2023-02-11T19:24:54.733Z,85.40
2023-02-11T19:27:21.167Z,85.20
2023-02-11T19:29:47.612Z,85.20
2023-02-11T19:32:14.041Z,85.20
2023-02-11T19:34:40.462Z,85.20
2023-02-11T19:37:06.915Z,85.10
2023-02-11T19:39:33.303Z,85.30
2023-02-11T19:41:59.726Z,85.30
2023-02-11T19:44:26.192Z,85.40
2023-02-11T19:46:52.595Z,85.40
2023-02-11T19:49:18.982Z,85.40
2023-02-11T19:51:45.410Z,85.50
2023-02-11T19:54:11.802Z,85.40
2023-02-11T19:56:38.268Z,85.40
2023-02-11T19:59:04.735Z,85.40
2023-02-11T20:01:31.185Z,85.50
2023-02-11T20:03:57.679Z,85.40
2023-02-11T20:06:24.126Z,85.40
2023-02-11T20:08:50.535Z,85.40
2023-02-11T20:11:16.928Z,85.50
2023-02-11T20:13:43.409Z,85.40
2023-02-11T20:16:09.845Z,85.40
2023-02-11T20:18:36.297Z,85.40
2023-02-11T20:21:02.682Z,85.50
2023-02-11T20:23:29.068Z,85.40
2023-02-11T20:25:55.500Z,85.50
2023-02-11T20:28:21.936Z,85.40
2023-02-11T20:30:48.446Z,85.40
2023-02-11T20:33:14.906Z,85.60
2023-02-11T20:35:41.374Z,85.60
2023-02-11T20:38:07.750Z,85.50
2023-02-11T20:40:34.110Z,85.50
2023-02-11T20:43:01.564Z,85.40
2023-02-11T20:45:27.951Z,85.50
2023-02-11T20:47:54.411Z,85.50
2023-02-11T20:50:20.781Z,85.60
2023-02-11T20:52:47.164Z,85.60
2023-02-11T20:55:13.583Z,85.60
2023-02-11T20:57:42.748Z,85.60
2023-02-11T21:00:09.208Z,85.80
2023-02-11T21:02:35.628Z,85.90
2023-02-11T21:05:02.008Z,85.90
2023-02-11T21:07:28.425Z,86.00
2023-02-11T21:09:54.836Z,86.00
2023-02-11T21:12:21.286Z,85.90
2023-02-11T21:14:47.760Z,86.00
2023-02-11T21:17:14.230Z,86.10
2023-02-11T21:19:40.641Z,86.10
2023-02-11T21:22:07.107Z,86.20
2023-02-11T21:24:33.502Z,86.30
2023-02-11T21:26:59.893Z,86.20
2023-02-11T21:29:26.342Z,86.20
2023-02-11T21:31:52.847Z,86.30
2023-02-11T21:34:19.476Z,86.30
2023-02-11T21:36:45.911Z,86.30
2023-02-11T21:39:12.296Z,86.30
2023-02-11T21:41:38.693Z,86.30
2023-02-11T21:44:05.147Z,86.30
2023-02-11T21:46:31.594Z,86.30
2023-02-11T21:48:58.015Z,86.50
2023-02-11T21:51:24.441Z,86.60
2023-02-11T21:53:50.836Z,87.20
2023-02-11T21:56:17.229Z,86.60
2023-02-11T21:58:43.624Z,86.60
2023-02-11T22:01:10.180Z,86.60
2023-02-11T22:03:36.680Z,86.60
2023-02-11T22:06:03.090Z,86.60
2023-02-11T22:08:29.461Z,86.60
2023-02-11T22:10:55.841Z,86.60
2023-02-11T22:13:22.214Z,86.60
2023-02-11T22:15:48.697Z,86.60
2023-02-11T22:18:15.183Z,86.60
2023-02-11T22:20:41.604Z,86.70
2023-02-11T22:23:08.047Z,86.80
2023-02-11T22:25:34.501Z,86.80
2023-02-11T22:28:00.935Z,86.80
2023-02-11T22:30:27.378Z,86.80
2023-02-11T22:32:53.805Z,86.90
2023-02-11T22:35:20.252Z,87.60
2023-02-11T22:37:46.662Z,87.10
2023-02-11T22:40:13.052Z,87.20
2023-02-11T22:42:39.435Z,87.30
2023-02-11T22:45:05.840Z,87.20
2023-02-11T22:47:32.293Z,87.10
2023-02-11T22:49:58.681Z,87.10
2023-02-11T22:52:25.047Z,87.20
2023-02-11T22:54:51.474Z,87.30
2023-02-11T22:57:17.868Z,87.40
2023-02-11T22:59:44.334Z,87.50
2023-02-11T23:02:10.907Z,87.50
2023-02-11T23:04:37.428Z,87.50
2023-02-11T23:07:03.862Z,87.50
2023-02-11T23:09:30.337Z,87.50
2023-02-11T23:11:56.725Z,87.30
2023-02-11T23:14:23.110Z,87.30
2023-02-11T23:16:49.583Z,87.40
2023-02-11T23:19:15.993Z,87.50
2023-02-11T23:21:42.382Z,87.50
2023-02-11T23:24:08.831Z,87.40
2023-02-11T23:26:35.274Z,87.50
2023-02-11T23:29:01.770Z,87.40
2023-02-11T23:31:28.275Z,87.30
2023-02-11T23:33:54.736Z,87.30
2023-02-11T23:36:21.166Z,87.30
2023-02-11T23:38:47.562Z,87.20
2023-02-11T23:41:13.991Z,87.20
2023-02-11T23:43:40.420Z,87.20
2023-02-11T23:46:06.860Z,87.20
2023-02-11T23:48:33.350Z,87.10
2023-02-11T23:50:59.786Z,87.20
2023-02-11T23:53:26.280Z,87.30
2023-02-11T23:55:52.981Z,87.30
2023-02-11T23:58:20.036Z,87.30
